Latest Weather Observations for PORTABLE BTSC (DFES)

IDW60801

Issued at 6:42 pm WST Friday 2 December 2022 (issued every 10 minutes, with the page automatically refreshed every 10 minutes)

About weather observations | Map of weather stations | Latest weather observations for WA | Other Formats
Station Details ID: 250118 Name: DFES PORTABLE AWS C Lat: -27.69 Lon: 114.26 Height: 20.0 m

Portable automatic weather stations (PAWS) are operated by other organisations, such as Fire and Emergency Services, and are included here by agreement. Portable stations may be deployed to a location for a short period and their location may be subject to change without notice. Wind observations from these stations are provided from heights of either three (3) or ten (10) metres above ground level (AGL).

Data from the previous 72 hours. | See also: Recent months for locations in Western Australia
Date/Time
WST
Temp
°C
App
Temp
°C
Dew
Point
°C
Rel
Hum
%
Delta-T
°C
Wind Press
QNH
hPa
Press
MSL
hPa
Rain since
9am
mm
Dir  Spd
km/h
Gust
km/h
Spd
kts
Gust
kts
02/06:30pm 21.3 18.7 13.2 60 4.6 S 19 22 10 12 - - 0.0
02/06:20pm 21.6 18.8 13.2 58 4.8 S 20 22 11 12 - - 0.0
02/06:10pm 22.2 19.6 13.2 56 5.2 S 19 22 10 12 - - 0.0
02/06:00pm 22.5 19.9 13.2 55 5.4 S 19 22 10 12 - - 0.0
02/05:50pm 23.0 20.4 13.2 54 5.7 S 19 22 10 12 - - 0.0
02/05:40pm 23.3 20.6 12.8 51 6.0 S 19 24 10 13 - - 0.0
02/05:30pm 23.6 20.6 12.4 49 6.4 SSW 20 24 11 13 - - 0.0
02/05:20pm 23.9 21.1 12.6 49 6.5 SSW 19 22 10 12 - - 0.0
02/05:10pm 24.2 21.4 12.6 48 6.7 S 19 24 10 13 - - 0.0
02/05:00pm 24.4 21.4 12.4 47 6.9 SSW 20 24 11 13 - - 0.0
02/04:50pm 24.4 21.4 12.5 47 6.8 SSW 20 24 11 13 - - 0.0
02/04:40pm 24.6 21.2 12.6 47 6.9 SSW 22 28 12 15 - - 0.0
02/04:30pm 25.2 22.3 12.8 46 7.2 SSW 20 26 11 14 - - 0.0
02/04:20pm 25.1 21.8 12.7 46 7.2 SSW 22 24 12 13 - - 0.0
02/04:10pm 25.3 22.4 12.8 45 7.2 SSW 20 24 11 13 - - 0.0
02/04:00pm 25.3 21.8 12.3 44 7.5 SSW 22 26 12 14 - - 0.0
02/03:50pm 25.7 22.3 12.6 44 7.6 SW 22 28 12 15 - - 0.0
02/03:40pm 26.0 23.0 12.5 43 7.8 SSW 20 24 11 13 - - 0.0
02/03:30pm 26.1 23.1 12.4 42 7.9 SSW 20 24 11 13 - - 0.0
02/03:20pm 26.4 23.4 12.6 42 8.0 SSW 20 24 11 13 - - 0.0
02/03:10pm 26.1 22.3 12.5 42 7.9 SW 24 26 13 14 - - 0.0
02/03:00pm 26.4 23.1 12.8 43 7.9 SW 22 28 12 15 - - 0.0
02/02:50pm 26.6 22.9 12.8 42 8.0 SW 24 28 13 15 - - 0.0
02/02:40pm 26.7 23.4 12.7 42 8.1 SW 22 26 12 14 - - 0.0
02/02:30pm 26.7 23.0 12.7 42 8.1 SW 24 26 13 14 - - 0.0
02/02:20pm 26.9 23.3 13.1 42 8.1 SW 24 28 13 15 - - 0.0
02/02:10pm 27.3 23.7 13.1 41 8.3 SW 24 26 13 14 - - 0.0
02/02:00pm 27.6 24.0 13.0 40 8.6 SW 24 28 13 15 - - 0.0
02/01:50pm 27.8 24.6 13.2 40 8.6 SW 22 26 12 14 - - 0.0
02/01:40pm 28.3 25.5 13.2 39 8.9 SW 20 24 11 13 - - 0.0
02/01:30pm 28.5 25.3 13.1 38 9.1 SW 22 26 12 14 - - 0.0
02/01:20pm 28.8 25.6 13.1 38 9.3 SW 22 24 12 13 - - 0.0
02/01:10pm 28.9 25.9 13.7 39 9.1 SW 22 26 12 14 - - 0.0
02/01:00pm 28.9 25.8 13.5 38 9.2 SW 22 32 12 17 - - 0.0
02/12:50pm 28.6 25.3 13.9 40 8.8 SW 24 30 13 16 - - 0.0
02/12:40pm 29.0 25.7 13.9 39 9.0 SW 24 26 13 14 - - 0.0
02/12:30pm 29.1 26.1 13.6 38 9.2 SW 22 28 12 15 - - 0.0
02/12:20pm 29.7 27.1 13.2 36 9.8 SW 19 22 10 12 - - 0.0
02/12:10pm 29.1 25.7 10.7 32 10.5 W 19 24 10 13 - - 0.0
02/12:00pm 29.1 27.0 12.3 35 9.8 W 15 26 8 14 - - 0.0
02/11:50am 29.9 28.6 11.1 31 10.8 S 9 11 5 6 - - 0.0
02/11:40am 30.3 29.6 11.4 31 10.9 ENE 6 9 3 5 - - 0.0
02/11:30am 29.6 28.7 11.3 32 10.5 E 7 11 4 6 - - 0.0
02/11:20am 29.1 28.2 11.4 33 10.2 S 7 13 4 7 - - 0.0
02/11:10am 28.7 27.9 11.7 35 9.8 S 7 13 4 7 - - 0.0
02/11:00am 28.3 27.4 11.5 35 9.7 S 7 9 4 5 - - 0.0
02/10:50am 27.9 27.1 11.8 36 9.3 E 7 11 4 6 - - 0.0
02/10:40am 27.3 26.2 12.0 38 8.8 S 9 13 5 7 - - 0.0
02/10:30am 27.1 26.4 12.1 39 8.7 SSE 7 11 4 6 - - 0.0
02/10:20am 26.5 25.8 12.1 40 8.3 SSW 7 11 4 6 - - 0.0
02/10:10am 26.1 25.0 11.8 41 8.2 SSW 9 13 5 7 - - 0.0
02/10:00am 25.8 24.2 11.7 41 8.0 SSW 11 15 6 8 - - 0.0
02/09:50am 25.4 24.0 12.3 44 7.5 SSW 11 17 6 9 - - 0.0
02/09:40am 25.0 23.6 12.1 44 7.4 S 11 17 6 9 - - 0.0
02/09:30am 24.6 23.2 12.3 46 7.0 S 11 17 6 9 - - 0.0
02/09:20am 24.5 23.7 12.9 48 6.7 S 9 15 5 8 - - 0.0
02/09:10am 24.1 22.9 12.7 49 6.6 SSW 11 13 6 7 - - 0.0
02/09:00am 23.5 22.7 12.8 51 6.1 SSE 9 13 5 7 - - 0.0
02/08:50am 22.9 20.9 12.8 53 5.8 SE 15 19 8 10 - - 0.0
02/08:40am 22.9 21.4 13.0 53 5.7 SSE 13 15 7 8 - - 0.0
02/08:30am 22.3 20.4 13.1 56 5.3 SSE 15 17 8 9 - - 0.0
02/08:20am 21.7 19.9 13.3 59 4.8 SSE 15 19 8 10 - - 0.0
02/08:10am 21.4 19.1 12.9 58 4.8 SSE 17 19 9 10 - - 0.0
02/08:00am 21.1 18.8 13.0 60 4.6 SE 17 20 9 11 - - 0.0
02/07:50am 20.6 17.9 13.0 61 4.3 SSE 19 20 10 11 - - 0.0
02/07:40am 20.6 18.3 13.1 62 4.3 SSE 17 20 9 11 - - 0.0
02/07:30am 20.2 17.9 13.0 63 4.1 SSE 17 19 9 10 - - 0.0
02/07:20am 19.9 18.0 13.1 65 3.9 SSE 15 17 8 9 - - 0.0
02/07:10am 19.4 17.5 13.1 67 3.6 SSE 15 17 8 9 - - 0.0
02/07:00am 18.7 17.2 13.1 70 3.2 SSE 13 17 7 9 - - 0.0
02/06:50am 17.8 16.8 13.3 75 2.5 SE 11 15 6 8 - - 0.0
02/06:40am 16.9 15.9 13.3 79 2.0 SE 11 15 6 8 - - 0.0
02/06:30am 16.2 15.4 13.0 81 1.8 SSE 9 11 5 6 - - 0.0
02/06:20am 15.6 14.4 12.8 83 1.5 SE 11 11 6 6 - - 0.0
02/06:10am 15.0 14.1 12.5 85 1.4 SE 9 11 5 6 - - 0.0
02/06:00am 14.3 13.7 12.2 87 1.1 SSE 7 9 4 5 - - 0.0
02/05:50am 13.9 12.8 12.0 88 1.0 SSE 9 9 5 5 - - 0.0
02/05:40am 13.4 12.3 11.9 91 0.8 SSE 9 9 5 5 - - 0.0
02/05:30am 13.1 12.3 11.7 91 0.7 SSE 7 9 4 5 - - 0.0
02/05:20am 12.9 12.0 11.5 91 0.7 SE 7 7 4 4 - - 0.0
02/05:10am 12.6 11.7 11.2 91 0.7 SE 7 7 4 4 - - 0.0
02/05:00am 12.4 11.6 10.9 90 0.8 ESE 6 7 3 4 - - 0.0
02/04:50am 12.9 12.0 11.5 91 0.7 SE 7 7 4 4 - - 0.0
02/04:40am 13.1 12.3 11.6 91 0.8 SE 7 9 4 5 - - 0.0
02/04:30am 13.1 12.3 11.6 91 0.8 SE 7 9 4 5 - - 0.0
02/04:20am 13.2 12.4 11.6 90 0.9 SE 7 9 4 5 - - 0.0
02/04:10am 13.1 12.3 11.6 91 0.8 SE 7 9 4 5 - - 0.0
02/04:00am 13.0 12.1 11.5 91 0.8 SE 7 9 4 5 - - 0.0
02/03:50am 13.1 12.2 11.5 90 0.8 SE 7 9 4 5 - - 0.0
02/03:40am 13.2 12.4 11.6 90 0.9 SSE 7 9 4 5 - - 0.0
02/03:30am 13.2 12.4 11.6 90 0.9 SE 7 9 4 5 - - 0.0
02/03:20am 13.1 12.2 11.5 90 0.8 SE 7 9 4 5 - - 0.0
02/03:10am 13.0 12.1 11.4 90 0.8 SE 7 7 4 4 - - 0.0
02/03:00am 13.1 12.2 11.4 89 0.9 SE 7 9 4 5 - - 0.0
02/02:50am 13.0 11.7 11.4 90 0.8 SE 9 9 5 5 - - 0.0
02/02:40am 13.1 11.8 11.4 89 0.9 SE 9 9 5 5 - - 0.0
02/02:30am 13.1 11.9 11.5 90 0.8 SE 9 9 5 5 - - 0.0
02/02:20am 13.1 12.2 11.4 89 0.9 SE 7 9 4 5 - - 0.0
02/02:10am 13.2 12.3 11.5 89 0.9 SE 7 9 4 5 - - 0.0
02/02:00am 13.1 12.3 11.6 91 0.8 SE 7 9 4 5 - - 0.0
02/01:50am 12.9 12.0 11.4 91 0.8 SE 7 9 4 5 - - 0.0
02/01:40am 12.4 11.5 10.8 90 0.8 ESE 6 7 3 4 - - 0.0
02/01:30am 12.9 12.2 11.4 91 0.8 SE 6 7 3 4 - - 0.0
02/01:20am 12.7 11.9 11.0 89 0.9 ESE 6 6 3 3 - - 0.0
02/01:10am 13.6 12.8 11.7 88 1.0 SE 7 9 4 5 - - 0.0
02/01:00am 13.8 13.1 11.9 88 1.0 SSE 7 7 4 4 - - 0.0
02/12:50am 14.0 12.9 12.0 88 1.1 SSE 9 9 5 5 - - 0.0
02/12:40am 14.1 13.5 12.2 88 1.0 SSE 7 9 4 5 - - 0.0
02/12:30am 14.0 13.4 12.2 89 1.0 SSE 7 9 4 5 - - 0.0
02/12:20am 14.1 13.5 12.2 88 1.0 SSE 7 7 4 4 - - 0.0
02/12:10am 14.2 13.6 12.3 88 1.0 SSE 7 7 4 4 - - 0.0
02/12:00am 14.4 13.8 12.4 88 1.1 SSE 7 7 4 4 - - 0.0
 
Date/Time
WST
Temp
°C
App
Temp
°C
Dew
Point
°C
Rel
Hum
%
Delta-T
°C
Wind Press
QNH
hPa
Press
MSL
hPa
Rain since
9am
mm
Dir  Spd
km/h
Gust
km/h
Spd
kts
Gust
kts
01/11:50pm 14.3 13.7 12.4 88 1.0 SSE 7 7 4 4 - - 0.0
01/11:40pm 14.3 13.7 12.4 88 1.0 SSE 7 7 4 4 - - 0.0
01/11:30pm 14.3 13.9 12.3 88 1.1 SSE 6 7 3 4 - - 0.0
01/11:20pm 14.3 13.9 12.3 88 1.1 SSE 6 7 3 4 - - 0.0
01/11:10pm 14.6 14.2 12.4 87 1.2 SSE 6 7 3 4 - - 0.0
01/11:00pm 14.7 14.2 12.5 87 1.2 SE 7 7 4 4 - - 0.0
01/10:50pm 14.9 14.4 12.6 86 1.3 SSE 7 7 4 4 - - 0.0
01/10:40pm 15.2 14.9 12.7 85 1.4 SSE 6 7 3 4 - - 0.0
01/10:30pm 15.6 15.1 12.8 83 1.5 SSE 7 9 4 5 - - 0.0
01/10:20pm 15.9 15.5 12.9 82 1.7 SSE 7 9 4 5 - - 0.0
01/10:10pm 16.1 15.3 13.0 82 1.7 SSE 9 11 5 6 - - 0.0
01/10:00pm 16.2 15.4 13.0 81 1.8 SSE 9 11 5 6 - - 0.0
01/09:50pm 16.4 15.7 13.1 81 1.8 SSE 9 11 5 6 - - 0.0
01/09:40pm 16.7 15.6 13.2 80 2.0 SSE 11 11 6 6 - - 0.0
01/09:30pm 17.0 15.6 13.3 79 2.1 SSE 13 15 7 8 - - 0.0
01/09:20pm 17.1 16.1 13.4 79 2.1 SSE 11 13 6 7 - - 0.0
01/09:10pm 17.3 16.3 13.4 78 2.2 SSE 11 15 6 8 - - 0.0
01/09:00pm 17.4 16.0 13.4 77 2.3 S 13 15 7 8 - - 0.0
01/08:50pm 17.6 16.2 13.5 77 2.3 S 13 17 7 9 - - 0.0
01/08:40pm 17.8 16.8 13.5 76 2.4 S 11 15 6 8 - - 0.0
01/08:30pm 18.0 16.6 13.5 75 2.5 S 13 15 7 8 - - 0.0
01/08:20pm 18.2 16.8 13.4 73 2.7 S 13 17 7 9 - - 0.0
01/08:10pm 18.4 16.6 13.4 72 2.8 S 15 15 8 8 - - 0.0
01/08:00pm 18.6 17.1 13.2 71 3.1 S 13 17 7 9 - - 0.0
01/07:50pm 18.9 17.4 13.0 68 3.3 S 13 17 7 9 - - 0.0
01/07:40pm 19.1 17.6 13.0 67 3.4 S 13 17 7 9 - - 0.0
01/07:30pm 19.4 17.5 12.9 66 3.7 S 15 17 8 9 - - 0.0
01/07:20pm 19.7 18.1 12.9 65 3.8 S 13 15 7 8 - - 0.0
01/07:10pm 20.1 18.2 12.9 63 4.1 S 15 19 8 10 - - 0.0
01/07:00pm 20.5 18.1 12.8 61 4.4 S 17 17 9 9 - - 0.0
01/06:50pm 21.0 19.1 13.0 60 4.6 S 15 20 8 11 - - 0.0
01/06:40pm 21.5 18.8 13.0 58 4.9 S 19 20 10 11 - - 0.0
01/06:30pm 22.0 19.3 12.9 56 5.2 S 19 22 10 12 - - 0.0
01/06:20pm 22.7 20.4 13.0 54 5.6 S 17 19 9 10 - - 0.0
01/06:10pm 23.0 20.3 12.9 53 5.8 S 19 20 10 11 - - 0.0
01/06:00pm 23.5 21.3 13.2 52 6.0 S 17 20 9 11 - - 0.0
01/05:50pm 23.8 21.4 12.5 49 6.5 S 17 20 9 11 - - 0.0
01/05:40pm 24.2 21.5 12.8 49 6.6 S 19 24 10 13 - - 0.0
01/05:30pm 24.3 21.5 12.7 48 6.7 SSW 19 20 10 11 - - 0.0
01/05:20pm 24.7 22.3 12.6 47 7.0 S 17 20 9 11 - - 0.0
01/05:10pm 24.9 22.1 12.6 46 7.1 S 19 20 10 11 - - 0.0
01/05:00pm 25.3 22.5 12.5 45 7.4 SSW 19 20 10 11 - - 0.0
01/04:50pm 25.4 22.6 12.6 45 7.4 SSW 19 24 10 13 - - 0.0
01/04:40pm 25.4 22.6 13.1 46 7.2 SSW 20 22 11 12 - - 0.0
01/04:30pm 25.7 22.8 12.9 45 7.4 SSW 20 22 11 12 - - 0.0
01/04:20pm 25.8 22.8 12.7 44 7.6 SSW 20 22 11 12 - - 0.0
01/04:10pm 26.2 23.4 12.5 42 7.9 SSW 19 22 10 12 - - 0.0
01/04:00pm 26.5 23.5 12.5 41 8.1 SSW 20 22 11 12 - - 0.0
01/03:50pm 27.1 24.1 11.9 38 8.7 SSW 19 22 10 12 - - 0.0
01/03:40pm 27.2 24.7 12.4 40 8.6 SSW 17 20 9 11 - - 0.0
01/03:30pm 27.3 24.4 12.2 39 8.7 SSW 19 24 10 13 - - 0.0
01/03:20pm 27.3 24.5 12.5 40 8.6 SSW 19 20 10 11 - - 0.0
01/03:10pm 27.7 25.1 12.1 38 9.0 SSW 17 20 9 11 - - 0.0
01/03:00pm 27.7 24.9 12.5 39 8.9 SSW 19 20 10 11 - - 0.0
01/02:50pm 27.9 25.4 12.3 38 9.1 SSW 17 20 9 11 - - 0.0
01/02:40pm 27.7 24.8 12.3 38 8.9 SW 19 22 10 12 - - 0.0
01/02:30pm 27.8 24.8 12.1 37 9.1 SSW 19 24 10 13 - - 0.0
01/02:20pm 27.5 24.7 12.6 39 8.7 SSW 19 24 10 13 - - 0.0
01/02:10pm 27.6 24.9 13.0 40 8.6 SSW 19 22 10 12 - - 0.0
01/02:00pm 27.7 24.8 12.9 40 8.7 SW 20 26 11 14 - - 0.0
01/01:50pm 27.4 24.6 13.1 41 8.4 SSW 20 26 11 14 - - 0.0
01/01:40pm 27.4 24.2 13.0 41 8.4 SW 22 24 12 13 - - 0.0
01/01:30pm 27.5 24.4 13.5 42 8.3 SW 22 24 12 13 - - 0.0
01/01:20pm 27.9 24.9 12.7 39 8.9 SW 20 28 11 15 - - 0.0
01/01:10pm 27.9 25.2 13.6 41 8.5 SW 20 26 11 14 - - 0.0
01/01:00pm 27.9 25.3 13.1 40 8.7 SSW 19 22 10 12 - - 0.0
01/12:50pm 28.1 25.4 12.9 39 8.9 SSW 19 22 10 12 - - 0.0
01/12:40pm 27.8 25.1 13.0 40 8.7 SSW 19 24 10 13 - - 0.0
01/12:30pm 28.0 25.3 12.8 39 8.9 SSW 19 22 10 12 - - 0.0
01/12:20pm 27.7 24.9 12.7 39 8.8 SSW 19 22 10 12 - - 0.0
01/12:10pm 27.9 25.6 13.0 39 8.8 SSW 17 22 9 12 - - 0.0
01/12:00pm 27.5 24.8 13.0 40 8.5 SW 19 20 10 11 - - 0.0
01/11:50am 27.3 25.3 13.8 43 8.0 SSW 17 20 9 11 - - 0.0
01/11:40am 27.5 25.4 13.6 42 8.2 SSW 17 20 9 11 - - 0.0
01/11:30am 27.5 25.4 13.7 42 8.2 SW 17 22 9 12 - - 0.0
01/11:20am 27.6 25.8 13.3 41 8.4 SSW 15 19 8 10 - - 0.0
01/11:10am 27.2 25.6 12.8 41 8.4 SSW 13 17 7 9 - - 0.0
01/11:00am 27.1 25.4 12.4 40 8.5 SSW 13 19 7 10 - - 0.0
01/10:50am 27.4 26.8 12.2 39 8.8 S 7 13 4 7 - - 0.0
01/10:40am 26.9 25.6 12.4 40 8.4 S 11 13 6 7 - - 0.0
01/10:30am 26.2 24.8 12.3 42 8.0 SW 11 15 6 8 - - 0.0
01/10:20am 25.9 25.0 12.6 43 7.7 SW 9 13 5 7 - - 0.0
01/10:10am 26.0 24.6 12.1 42 8.0 S 11 13 6 7 - - 0.0
01/10:00am 25.4 24.6 13.0 46 7.2 S 9 13 5 7 - - 0.0
01/09:50am 25.6 24.8 12.9 45 7.4 SSW 9 11 5 6 - - 0.0
01/09:40am 24.8 23.9 12.6 46 7.0 S 9 13 5 7 - - 0.0
01/09:30am 24.4 23.9 12.6 47 6.8 SSW 7 13 4 7 - - 0.0
01/09:20am 24.0 22.9 13.0 50 6.4 S 11 13 6 7 - - 0.0
01/09:10am 23.9 23.2 13.1 50 6.2 S 9 15 5 8 - - 0.0
01/09:00am 23.4 22.2 12.8 51 6.1 SSW 11 15 6 8 - - 0.0
01/08:50am 23.0 21.8 12.7 52 5.9 S 11 15 6 8 - - 0.0
01/08:40am 22.9 21.7 12.7 52 5.8 S 11 17 6 9 - - 0.0
01/08:30am 22.4 21.4 13.4 56 5.2 S 11 13 6 7 - - 0.0
01/08:20am 22.1 20.4 13.7 59 4.9 S 15 17 8 9 - - 0.0
01/08:10am 21.8 20.7 13.0 57 5.0 S 11 15 6 8 - - 0.0
01/08:00am 21.9 20.5 13.3 58 4.9 S 13 15 7 8 - - 0.0
01/07:50am 21.4 19.5 12.9 58 4.8 S 15 17 8 9 - - 0.0
01/07:40am 21.3 20.1 12.9 58 4.8 S 11 13 6 7 - - 0.0
01/07:30am 21.1 19.6 13.1 60 4.6 S 13 15 7 8 - - 0.0
01/07:20am 20.6 19.0 12.8 61 4.4 S 13 17 7 9 - - 0.0
01/07:10am 20.0 18.5 13.1 64 3.9 S 13 15 7 8 - - 0.0
01/07:00am 20.2 18.7 13.1 63 4.0 S 13 15 7 8 - - 0.0
01/06:50am 19.6 18.1 13.2 66 3.6 S 13 15 7 8 - - 0.0
01/06:40am 19.7 18.3 13.5 67 3.5 S 13 15 7 8 - - 0.0
01/06:30am 19.3 18.8 13.7 70 3.2 S 9 13 5 7 - - 0.0
01/06:20am 19.2 19.0 13.7 70 3.1 S 7 9 4 5 - - 0.0
01/06:10am 19.0 18.4 13.5 70 3.1 S 9 11 5 6 - - 0.0
01/06:00am 18.8 18.5 13.3 70 3.1 S 7 9 4 5 - - 0.0
01/05:50am 18.6 18.3 13.3 71 3.0 S 7 9 4 5 - - 0.0
01/05:40am 18.6 17.9 13.1 70 3.1 S 9 13 5 7 - - 0.0
01/05:30am 18.6 17.5 13.0 70 3.2 S 11 13 6 7 - - 0.0
01/05:20am 18.6 18.0 13.4 72 2.9 S 9 11 5 6 - - 0.0
01/05:10am 18.6 18.0 13.5 72 2.9 SSE 9 9 5 5 - - 0.0
01/05:00am 18.7 18.1 13.5 72 3.0 SSE 9 11 5 6 - - 0.0
01/04:50am 18.7 18.1 13.5 72 3.0 SSE 9 11 5 6 - - 0.0
01/04:40am 18.7 17.8 13.6 72 2.9 S 11 13 6 7 - - 0.0
01/04:30am 18.7 18.1 13.5 72 3.0 SSE 9 11 5 6 - - 0.0
01/04:20am 18.7 18.1 13.4 71 3.0 SSE 9 11 5 6 - - 0.0
01/04:10am 18.6 18.0 13.4 72 2.9 S 9 13 5 7 - - 0.0
01/04:00am 18.6 17.6 13.4 72 2.9 SSE 11 13 6 7 - - 0.0
01/03:50am 18.7 17.3 13.4 71 3.0 S 13 15 7 8 - - 0.0
01/03:40am 18.7 18.1 13.4 71 3.0 SSE 9 13 5 7 - - 0.0
01/03:30am 18.7 18.1 13.5 72 3.0 S 9 13 5 7 - - 0.0
01/03:20am 18.9 17.9 13.5 71 3.1 S 11 13 6 7 - - 0.0
01/03:10am 19.0 18.1 13.7 71 3.0 SSE 11 13 6 7 - - 0.0
01/03:00am 19.1 18.8 14.3 73 2.8 S 9 11 5 6 - - 0.0
01/02:50am 19.1 18.8 14.3 73 2.8 S 9 13 5 7 - - 0.0
01/02:40am 19.1 18.4 14.3 73 2.8 S 11 13 6 7 - - 0.0
01/02:30am 19.1 18.3 14.1 73 2.9 S 11 13 6 7 - - 0.0
01/02:20am 19.1 18.7 14.0 72 2.9 S 9 13 5 7 - - 0.0
01/02:10am 19.1 18.3 14.1 73 2.9 S 11 15 6 8 - - 0.0
01/02:00am 19.1 18.7 14.1 73 2.9 S 9 11 5 6 - - 0.0
01/01:50am 19.1 18.3 13.9 72 3.0 S 11 13 6 7 - - 0.0
01/01:40am 19.0 18.2 13.9 72 2.9 S 11 15 6 8 - - 0.0
01/01:30am 19.1 17.8 13.8 71 3.0 S 13 15 7 8 - - 0.0
01/01:20am 19.2 18.8 14.1 72 2.9 S 9 13 5 7 - - 0.0
01/01:10am 19.2 18.4 14.1 72 2.9 S 11 13 6 7 - - 0.0
01/01:00am 19.1 18.7 14.0 72 2.9 S 9 11 5 6 - - 0.0
01/12:50am 19.1 18.2 13.8 71 3.0 S 11 13 6 7 - - 0.0
01/12:40am 19.1 18.3 13.9 72 3.0 S 11 13 6 7 - - 0.0
01/12:30am 19.2 18.0 13.9 71 3.0 S 13 19 7 10 - - 0.0
01/12:20am 19.3 17.7 14.0 71 3.0 S 15 17 8 9 - - 0.0
01/12:10am 19.4 18.7 14.3 72 3.0 S 11 15 6 8 - - 0.0
01/12:00am 19.5 18.3 14.1 71 3.1 SSW 13 15 7 8 - - 0.0
 
Date/Time
WST
Temp
°C
App
Temp
°C
Dew
Point
°C
Rel
Hum
%
Delta-T
°C
Wind Press
QNH
hPa
Press
MSL
hPa
Rain since
9am
mm
Dir  Spd
km/h
Gust
km/h
Spd
kts
Gust
kts
30/11:50pm 19.6 18.5 14.2 71 3.1 S 13 17 7 9 - - 0.0
30/11:40pm 19.6 18.2 14.4 72 3.0 SSW 15 17 8 9 - - 0.0
30/11:30pm 19.6 18.5 14.4 72 3.0 SSW 13 17 7 9 - - 0.0
30/11:20pm 19.5 18.4 14.2 71 3.1 SSW 13 17 7 9 - - 0.0
30/11:10pm 19.6 18.5 14.4 72 3.0 SSW 13 17 7 9 - - 0.0
30/11:00pm 19.6 18.5 14.4 72 3.0 SSW 13 17 7 9 - - 0.0
30/10:50pm 19.5 18.1 14.4 72 3.0 S 15 17 8 9 - - 0.0
30/10:40pm 19.5 18.8 14.4 72 3.0 S 11 15 6 8 - - 0.0
30/10:30pm 19.5 18.4 14.4 72 3.0 S 13 17 7 9 - - 0.0
30/10:20pm 19.5 18.4 14.4 72 3.0 SSW 13 15 7 8 - - 0.0
30/10:10pm 19.5 18.4 14.4 72 3.0 S 13 15 7 8 - - 0.0
30/10:00pm 19.6 18.9 14.4 72 3.0 S 11 13 6 7 - - 0.0
30/09:50pm 19.6 19.0 14.5 72 3.0 S 11 15 6 8 - - 0.0
30/09:40pm 19.6 18.2 14.5 72 3.0 S 15 17 8 9 - - 0.0
30/09:30pm 19.6 18.6 14.5 72 3.0 S 13 15 7 8 - - 0.0
30/09:20pm 19.7 18.3 14.6 72 3.0 S 15 15 8 8 - - 0.0
30/09:10pm 19.8 18.8 14.6 72 3.0 S 13 17 7 9 - - 0.0
30/09:00pm 19.8 18.4 14.6 72 3.0 S 15 19 8 10 - - 0.0
30/08:50pm 19.9 18.5 14.6 71 3.1 S 15 19 8 10 - - 0.0
30/08:40pm 20.0 18.7 14.7 71 3.1 SSW 15 17 8 9 - - 0.0
30/08:30pm 20.1 18.8 14.8 71 3.1 SW 15 17 8 9 - - 0.0
30/08:20pm 20.1 18.8 14.8 71 3.1 SSW 15 17 8 9 - - 0.0
30/08:10pm 20.2 19.3 14.8 71 3.2 SW 13 15 7 8 - - 0.0
30/08:00pm 20.2 19.3 14.9 71 3.1 SSW 13 15 7 8 - - 0.0
30/07:50pm 20.2 20.1 14.9 71 3.1 SSW 9 13 5 7 - - 0.0
30/07:40pm 20.0 19.5 14.9 72 3.0 S 11 13 6 7 - - 0.0
30/07:30pm 19.8 19.3 14.8 73 2.9 SSW 11 15 6 8 - - 0.0
30/07:20pm 19.8 18.9 14.9 73 2.9 SSW 13 15 7 8 - - 0.0
30/07:10pm 19.9 18.6 14.8 72 3.0 SSW 15 17 8 9 - - 0.0
30/07:00pm 20.2 19.3 14.9 71 3.1 SSW 13 17 7 9 - - 0.0
30/06:50pm 20.4 19.6 15.0 71 3.2 SSW 13 17 7 9 - - 0.0
30/06:40pm 20.6 19.8 15.1 70 3.2 SSW 13 15 7 8 - - 0.0
30/06:30pm 21.0 19.5 15.3 70 3.4 SSW 17 22 9 12 - - 0.0
30/06:20pm 21.3 20.2 15.4 69 3.5 SSW 15 19 8 10 - - 0.0
30/06:10pm 22.0 20.6 15.6 67 3.8 SSW 17 19 9 10 - - 0.0
30/06:00pm 22.4 21.1 15.7 66 4.0 SSW 17 19 9 10 - - 0.0
30/05:50pm 22.8 21.4 15.6 64 4.3 SSW 17 19 9 10 - - 0.0
30/05:40pm 23.2 21.4 15.6 62 4.6 SW 19 20 10 11 - - 0.0
30/05:30pm 23.4 21.6 15.6 61 4.7 SW 19 20 10 11 - - 0.0
30/05:20pm 23.8 21.9 15.3 59 5.1 SW 19 22 10 12 - - 0.0
30/05:10pm 24.2 22.3 15.3 57 5.3 SW 19 20 10 11 - - 0.0
30/05:00pm 24.7 22.8 15.2 55 5.7 SW 19 22 10 12 - - 0.0
30/04:50pm 25.2 23.7 15.4 54 5.9 SW 17 20 9 11 - - 0.0
30/04:40pm 25.4 23.9 15.2 53 6.1 SW 17 19 9 10 - - 0.0
30/04:30pm 25.5 23.5 15.0 52 6.3 SW 19 20 10 11 - - 0.0
30/04:20pm 25.8 24.1 14.8 50 6.6 SW 17 22 9 12 - - 0.0
30/04:10pm 25.9 24.4 15.3 52 6.4 SW 17 22 9 12 - - 0.0
30/04:00pm 26.2 24.5 14.8 49 6.9 SW 17 22 9 12 - - 0.0
30/03:50pm 26.5 25.0 15.2 49 6.8 SW 17 20 9 11 - - 0.0
30/03:40pm 26.6 25.1 15.3 50 6.9 SW 17 19 9 10 - - 0.0
30/03:30pm 26.8 25.0 15.5 50 6.9 WSW 19 20 10 11 - - 0.0
30/03:20pm 26.8 24.8 15.0 48 7.1 SW 19 22 10 12 - - 0.0
30/03:10pm 27.0 25.1 15.2 48 7.2 SW 19 22 10 12 - - 0.0
30/03:00pm 27.0 24.9 15.3 48 7.1 WSW 20 26 11 14 - - 0.0
30/02:50pm 26.5 24.2 15.8 51 6.5 WSW 22 26 12 14 - - 0.0
30/02:40pm 26.7 24.2 16.1 52 6.5 WSW 24 28 13 15 - - 0.0
30/02:30pm 27.1 24.9 15.9 50 6.9 W 22 26 12 14 - - 0.0
30/02:20pm 26.9 25.0 15.8 50 6.8 WSW 20 24 11 13 - - 0.0
30/02:10pm 27.5 25.7 15.6 48 7.3 WSW 19 22 10 12 - - 0.0
30/02:00pm 27.1 25.1 15.4 48 7.1 WSW 20 24 11 13 - - 0.0
30/01:50pm 27.0 25.2 15.9 50 6.8 WSW 20 22 11 12 - - 0.0
30/01:40pm 27.1 25.3 15.5 49 7.1 WSW 19 24 10 13 - - 0.0
30/01:30pm 27.1 25.1 15.5 49 7.1 W 20 24 11 13 - - 0.0
30/01:20pm 27.4 25.5 15.7 48 7.2 W 20 26 11 14 - - 0.0
30/01:10pm 27.2 24.8 15.4 48 7.2 WSW 22 26 12 14 - - 0.0
30/01:00pm 27.2 25.4 15.9 50 6.9 W 20 24 11 13 - - 0.0
30/12:50pm 27.1 25.1 15.6 49 7.0 W 20 24 11 13 - - 0.0
30/12:40pm 27.2 25.2 15.6 49 7.1 WSW 20 24 11 13 - - 0.0
30/12:30pm 27.1 24.7 15.5 49 7.1 W 22 28 12 15 - - 0.0
30/12:20pm 27.6 26.0 16.0 49 7.1 WSW 19 22 10 12 - - 0.0
30/12:10pm 27.2 25.4 15.5 48 7.1 WSW 19 24 10 13 - - 0.0
30/12:00pm 27.4 25.6 15.4 48 7.3 WSW 19 24 10 13 - - 0.0
30/11:50am 27.0 25.7 15.9 50 6.8 WSW 17 22 9 12 - - 0.0
30/11:40am 26.7 24.9 16.1 52 6.5 WSW 20 24 11 13 - - 0.0
30/11:30am 26.9 25.3 16.1 51 6.6 WSW 19 24 10 13 - - 0.0
30/11:20am 26.0 23.8 16.0 54 6.1 W 22 26 12 14 - - 0.0
30/11:10am 26.4 24.9 16.3 53 6.2 W 19 22 10 12 - - 0.0
30/11:00am 26.4 24.7 15.8 52 6.5 WSW 19 22 10 12 - - 0.0
30/10:50am 26.1 25.0 16.3 54 6.0 WSW 17 20 9 11 - - 0.0
30/10:40am 25.9 24.3 16.0 54 6.1 W 19 24 10 13 - - 0.0
30/10:30am 25.5 23.9 16.0 55 5.8 WSW 19 24 10 13 - - 0.0
30/10:20am 25.7 24.2 16.4 56 5.7 WSW 19 22 10 12 - - 0.0
30/10:10am 25.5 24.1 16.5 57 5.5 WSW 19 22 10 12 - - 0.0
30/10:00am 25.5 24.2 15.8 55 5.9 WSW 17 22 9 12 - - 0.0
30/09:50am 25.0 23.4 16.1 57 5.4 WSW 19 22 10 12 - - 0.0
30/09:40am 25.2 24.0 16.2 57 5.5 WSW 17 19 9 10 - - 0.0
30/09:30am 24.8 24.1 16.5 60 5.1 WSW 15 19 8 10 - - 0.0
30/09:20am 24.6 23.1 16.4 60 5.0 W 19 22 10 12 - - 0.0
30/09:10am 24.7 24.5 16.7 61 4.9 WSW 13 17 7 9 - - 0.0
30/09:00am 24.4 23.3 16.4 61 4.9 WSW 17 19 9 10 - - 0.0
30/08:50am 24.0 22.9 16.3 62 4.7 WSW 17 19 9 10 - - 0.0
30/08:40am 23.7 23.1 16.6 64 4.3 WSW 15 20 8 11 - - 0.0
30/08:30am 24.1 23.9 16.7 63 4.5 SW 13 17 7 9 - - 0.0
30/08:20am 23.3 22.6 16.5 65 4.2 WSW 15 19 8 10 - - 0.0
30/08:10am 22.8 22.1 16.5 67 3.8 WSW 15 22 8 12 - - 0.0
30/08:00am 23.1 22.8 16.4 66 4.1 SW 13 17 7 9 - - 0.0
30/07:50am 22.3 22.1 16.7 70 3.4 WSW 13 17 7 9 - - 0.0
30/07:40am 22.5 22.6 16.6 69 3.6 SW 11 17 6 9 - - 0.0
30/07:30am 21.2 20.9 16.4 74 2.9 WSW 13 17 7 9 - - 0.0
30/07:20am 21.0 20.8 16.6 76 2.7 WSW 13 15 7 8 - - 0.0
30/07:10am 20.6 20.7 16.6 78 2.4 SW 11 15 6 8 - - 0.0
30/07:00am 20.5 20.6 16.6 78 2.4 SW 11 13 6 7 - - 0.0
30/06:50am 20.3 20.4 16.6 79 2.2 WSW 11 13 6 7 - - 0.0
30/06:40am 20.0 20.2 16.7 81 2.0 SW 11 11 6 6 - - 0.0
30/06:30am 19.8 20.9 17.0 84 1.7 SW 7 9 4 5 - - 0.0
30/06:20am 19.4 20.5 17.0 86 1.5 SW 7 9 4 5 - - 0.0
30/06:10am 19.2 20.5 17.1 88 1.3 WSW 6 9 3 5 - - 0.0
30/06:00am 19.0 20.3 17.1 89 1.2 WSW 6 7 3 4 - - 0.0
30/05:50am 18.8 20.1 17.0 89 1.1 WSW 6 6 3 3 - - 0.0
30/05:40am 18.6 20.2 16.9 90 1.0 WSW 4 6 2 3 - - 0.0
30/05:30am 18.5 20.1 16.9 90 1.0 WSW 4 6 2 3 - - 0.0
30/05:20am 18.4 20.0 16.8 90 1.0 W 4 6 2 3 - - 0.0
30/05:10am 18.3 19.9 16.8 91 0.9 WSW 4 6 2 3 - - 0.0
30/05:00am 18.3 19.8 16.7 90 1.0 WSW 4 6 2 3 - - 0.0
30/04:50am 18.4 19.6 16.8 90 1.0 WSW 6 6 3 3 - - 0.0
30/04:40am 18.5 19.8 17.0 91 0.9 WSW 6 6 3 3 - - 0.0
30/04:30am 18.5 19.8 17.0 91 0.9 SW 6 7 3 4 - - 0.0
30/04:20am 18.5 19.8 17.0 91 0.9 SW 6 6 3 3 - - 0.0
30/04:10am 18.6 19.9 17.1 91 0.9 SW 6 6 3 3 - - 0.0
30/04:00am 18.8 19.9 17.2 90 1.0 SW 7 9 4 5 - - 0.0
30/03:50am 19.0 20.5 17.6 92 0.9 SW 6 7 3 4 - - 0.0
30/03:40am 19.0 20.5 17.6 92 0.9 WSW 6 7 3 4 - - 0.0
30/03:30am 19.0 20.5 17.6 92 0.9 WSW 6 7 3 4 - - 0.0
30/03:20am 19.0 20.5 17.6 92 0.9 WSW 6 7 3 4 - - 0.0
30/03:10am 19.0 20.3 17.6 92 0.9 WSW 7 7 4 4 - - 0.0
30/03:00am 19.0 20.4 17.7 92 0.8 WSW 7 9 4 5 - - 0.0
30/02:50am 18.9 20.3 17.7 93 0.7 WSW 7 7 4 4 - - 0.0
30/02:40am 18.9 20.4 17.7 93 0.7 WSW 6 7 3 4 - - 0.0
30/02:30am 18.9 20.9 17.9 94 0.6 WSW 4 6 2 3 - - 0.0
30/02:20am 18.8 20.8 17.9 94 0.6 WSW 4 4 2 2 - - 0.0
30/02:10am 18.8 20.8 17.9 94 0.6 WSW 4 6 2 3 - - 0.0
30/02:00am 18.7 20.7 17.8 94 0.6 W 4 6 2 3 - - 0.0
30/01:50am 18.6 20.5 17.7 94 0.6 WSW 4 4 2 2 - - 0.0
30/01:40am 18.5 20.4 17.6 94 0.5 SW 4 4 2 2 - - 0.0
30/01:30am 18.4 20.2 17.5 94 0.5 SW 4 6 2 3 - - 0.0
30/01:20am 18.2 20.0 17.3 94 0.5 WSW 4 6 2 3 - - 0.0
30/01:10am 18.0 19.7 17.1 94 0.5 WSW 4 6 2 3 - - 0.0
30/01:00am 17.7 20.0 16.8 94 0.5 CALM 0 0 0 0 - - 0.0
30/12:50am 17.9 19.9 17.0 94 0.5 W 2 4 1 2 - - 0.0
30/12:40am 18.0 19.3 17.0 94 0.6 WSW 6 6 3 3 - - 0.0
30/12:30am 18.3 20.4 17.3 94 0.6 WSW 2 4 1 2 - - 0.0
30/12:20am 18.4 21.0 17.4 94 0.6 CALM 0 2 0 1 - - 0.0
30/12:10am 18.6 20.1 17.6 94 0.6 SW 6 6 3 3 - - 0.0
30/12:00am 18.6 20.1 17.6 94 0.6 W 6 6 3 3 - - 0.0
 
Date/Time
WST
Temp
°C
App
Temp
°C
Dew
Point
°C
Rel
Hum
%
Delta-T
°C
Wind Press
QNH
hPa
Press
MSL
hPa
Rain since
9am
mm
Dir  Spd
km/h
Gust
km/h
Spd
kts
Gust
kts
29/11:50pm 18.7 20.6 17.7 94 0.6 W 4 6 2 3 - - 0.0
29/11:40pm 18.7 21.4 17.7 94 0.6 CALM 0 0 0 0 - - 0.0
29/11:30pm 18.7 21.4 17.7 94 0.6 CALM 0 0 0 0 - - 0.0
29/11:20pm 18.5 20.7 17.5 94 0.6 E 2 2 1 1 - - 0.0
29/11:10pm 18.7 21.3 17.5 93 0.7 CALM 0 2 0 1 - - 0.0
29/11:00pm 19.0 21.0 17.8 93 0.7 W 4 4 2 2 - - 0.0
29/10:50pm 19.0 21.0 17.9 93 0.7 WSW 4 6 2 3 - - 0.0
29/10:40pm 19.1 21.1 17.9 93 0.7 WSW 4 6 2 3 - - 0.0
29/10:30pm 18.9 20.9 17.8 93 0.7 WSW 4 4 2 2 - - 0.0
29/10:20pm 19.0 21.3 17.8 93 0.7 SW 2 4 1 2 - - 0.0
29/10:10pm 19.1 21.1 17.9 93 0.7 SW 4 4 2 2 - - 0.0
29/10:00pm 19.2 21.3 18.0 93 0.7 SW 4 6 2 3 - - 0.0
29/09:50pm 19.3 21.0 18.1 93 0.7 WSW 6 6 3 3 - - 0.0
29/09:40pm 19.4 21.5 18.1 92 0.8 WSW 4 6 2 3 - - 0.0
29/09:30pm 19.6 21.8 18.4 93 0.7 WSW 4 6 2 3 - - 0.0
29/09:20pm 19.8 21.7 18.5 92 0.8 SW 6 7 3 4 - - 0.0
29/09:10pm 19.9 21.8 18.6 92 0.8 WSW 6 6 3 3 - - 0.0
29/09:00pm 20.0 21.8 18.7 92 0.8 WSW 7 9 4 5 - - 0.0
29/08:50pm 20.1 21.9 18.8 92 0.8 WSW 7 9 4 5 - - 0.0
29/08:40pm 20.1 22.1 18.7 92 0.9 W 6 7 3 4 - - 0.0
29/08:30pm 20.2 22.2 18.8 92 0.9 W 6 7 3 4 - - 0.0
29/08:20pm 20.4 22.3 18.9 91 0.9 W 7 7 4 4 - - 0.0
29/08:10pm 20.6 22.5 18.9 90 1.1 W 7 9 4 5 - - 0.0
29/08:00pm 20.7 22.2 19.0 90 1.1 W 9 9 5 5 - - 0.0
29/07:50pm 20.9 22.4 19.0 89 1.2 W 9 9 5 5 - - 0.0
29/07:40pm 21.1 23.0 19.0 88 1.3 W 7 9 4 5 - - 0.0
29/07:30pm 21.4 23.0 19.1 87 1.5 W 9 11 5 6 - - 0.0
29/07:20pm 21.6 23.2 19.1 86 1.6 W 9 11 5 6 - - 0.0
29/07:10pm 21.9 23.1 19.1 84 1.8 W 11 13 6 7 - - 0.0
29/07:00pm 22.3 23.5 19.0 81 2.1 W 11 13 6 7 - - 0.0
29/06:50pm 22.7 23.5 19.0 79 2.3 W 13 15 7 8 - - 0.0

Other formats

Comma delimited format used in spreadsheet applications
http://www.bom.gov.au/fwo/IDW60801/IDW60801.99458.axf

JavaScript Object Notation format (JSON) in row-major order
http://www.bom.gov.au/fwo/IDW60801/IDW60801.99458.json

Data quality

Most of these data are generated automatically and are frequently updated. Quality checks on data are not normally performed. It is possible for incorrect values to appear. Refer to information at About Latest Weather Observations and please check the disclaimer before using these data.